createdAt,value
2018-09-10T00:02:11.841Z,96045.83
2018-09-10T00:04:40.294Z,96046.11
2018-09-10T00:07:08.703Z,96039.41
2018-09-10T00:09:37.161Z,96044.80
2018-09-10T00:12:05.669Z,96042.82
2018-09-10T00:14:34.124Z,96047.17
2018-09-10T00:17:02.905Z,96042.56
2018-09-10T00:19:31.353Z,96041.36
2018-09-10T00:21:59.765Z,96041.76
2018-09-10T00:24:28.189Z,96037.44
2018-09-10T00:26:56.581Z,96043.38
2018-09-10T00:29:24.973Z,96034.67
2018-09-10T00:31:54.100Z,96028.84
2018-09-10T00:34:22.501Z,96030.81
2018-09-10T00:36:51.065Z,96034.77
2018-09-10T00:39:19.605Z,96032.97
2018-09-10T00:41:48.054Z,96029.80
2018-09-10T00:44:16.451Z,96024.20
2018-09-10T00:46:44.909Z,96022.91
2018-09-10T00:49:13.308Z,96031.89
2018-09-10T00:51:41.773Z,96028.59
2018-09-10T00:54:10.271Z,96029.98
2018-09-10T00:56:38.921Z,96030.98
2018-09-10T00:59:07.377Z,96032.27
2018-09-10T01:01:35.798Z,96031.58
2018-09-10T01:04:04.297Z,96032.34
2018-09-10T01:06:33.806Z,96032.80
2018-09-10T01:09:02.185Z,96033.41
2018-09-10T01:11:30.593Z,96028.56
2018-09-10T01:13:58.984Z,96031.58
2018-09-10T01:16:27.407Z,96027.47
2018-09-10T01:18:55.813Z,96028.70
2018-09-10T01:21:24.593Z,96034.22
2018-09-10T01:23:53.149Z,96039.11
2018-09-10T01:26:21.593Z,96036.80
2018-09-10T01:28:49.993Z,96041.81
2018-09-10T01:31:18.390Z,96041.03
2018-09-10T01:33:51.876Z,96045.28
2018-09-10T01:36:20.321Z,96038.08
2018-09-10T01:38:48.744Z,96039.83
2018-09-10T01:41:17.140Z,96045.03
2018-09-10T01:43:45.578Z,96043.89
2018-09-10T01:46:13.974Z,96043.22
2018-09-10T01:48:42.394Z,96040.66
2018-09-10T01:51:10.905Z,96040.23
2018-09-10T01:53:39.321Z,96043.77
2018-09-10T01:56:07.697Z,96035.34
2018-09-10T01:58:37.322Z,96036.05
2018-09-10T02:01:05.733Z,96038.41
2018-09-10T02:03:35.768Z,96038.47
2018-09-10T02:06:04.170Z,96032.91
2018-09-10T02:08:32.589Z,96032.63
2018-09-10T02:11:01.266Z,96027.58
2018-09-10T02:13:29.668Z,96027.19
2018-09-10T02:15:58.045Z,96026.78
2018-09-10T02:18:26.526Z,96023.16
2018-09-10T02:20:54.904Z,96019.78
2018-09-10T02:23:23.300Z,96005.38
2018-09-10T02:25:51.758Z,96014.03
2018-09-10T02:28:20.137Z,96012.69
2018-09-10T02:30:48.569Z,96009.31
2018-09-10T02:33:16.936Z,96007.91
2018-09-10T02:35:46.040Z,96010.70
2018-09-10T02:38:14.703Z,96012.69
2018-09-10T02:40:43.113Z,96012.09
2018-09-10T02:43:11.681Z,96013.86
2018-09-10T02:45:40.166Z,96017.80
2018-09-10T02:48:08.533Z,96026.66
2018-09-10T02:50:36.958Z,96019.43
2018-09-10T02:53:06.705Z,96025.20
2018-09-10T02:55:35.302Z,96020.82
2018-09-10T02:58:03.713Z,96021.02
2018-09-10T03:00:32.125Z,96017.96
2018-09-10T03:03:00.547Z,96013.67
2018-09-10T03:05:28.953Z,96020.55
2018-09-10T03:07:57.349Z,96021.46
2018-09-10T03:10:26.212Z,96021.66
2018-09-10T03:12:55.441Z,96018.20
2018-09-10T03:15:25.842Z,96015.53
2018-09-10T03:17:54.292Z,96021.30
2018-09-10T03:20:22.869Z,96017.13
2018-09-10T03:22:51.276Z,96015.30
2018-09-10T03:25:19.669Z,96012.95
2018-09-10T03:27:48.101Z,96013.66
2018-09-10T03:30:16.489Z,96009.01
2018-09-10T03:32:44.915Z,96008.22
2018-09-10T03:35:13.299Z,96008.73
2018-09-10T03:37:43.168Z,96008.85
2018-09-10T03:40:11.545Z,96008.16
2018-09-10T03:42:40.558Z,96008.41
2018-09-10T03:45:08.963Z,96007.30
2018-09-10T03:47:37.393Z,96009.69
2018-09-10T03:50:05.850Z,96014.09
2018-09-10T03:52:34.322Z,96005.02
2018-09-10T03:55:02.743Z,96009.38
2018-09-10T03:57:31.181Z,96011.87
2018-09-10T04:00:01.276Z,96021.92
2018-09-10T04:02:29.711Z,96024.78
2018-09-10T04:04:58.174Z,96024.59
2018-09-10T04:07:26.589Z,96024.63
2018-09-10T04:09:55.009Z,96017.80
2018-09-10T04:12:23.414Z,96020.61
2018-09-10T04:14:51.840Z,96018.23
2018-09-10T04:17:20.359Z,96033.11
2018-09-10T04:19:48.761Z,96024.77
2018-09-10T04:22:17.167Z,96025.92
2018-09-10T04:24:45.737Z,96033.36
2018-09-10T04:27:14.161Z,96038.05
2018-09-10T04:29:42.715Z,96041.98
2018-09-10T04:32:11.089Z,96043.66
2018-09-10T04:34:39.632Z,96044.45
2018-09-10T04:37:08.006Z,96044.84
2018-09-10T04:39:36.413Z,96039.20
2018-09-10T04:42:04.831Z,96055.10
2018-09-10T04:44:34.332Z,96055.14
2018-09-10T04:47:02.883Z,96061.23
2018-09-10T04:49:31.337Z,96060.20
2018-09-10T04:51:59.668Z,96070.89
2018-09-10T04:54:29.151Z,96063.30
2018-09-10T04:56:57.585Z,96075.98
2018-09-10T04:59:26.657Z,96073.20
2018-09-10T05:01:55.250Z,96068.47
2018-09-10T05:04:23.807Z,96077.06
2018-09-10T05:06:52.207Z,96075.55
2018-09-10T05:09:20.874Z,96080.12
2018-09-10T05:11:50.557Z,96089.40
2018-09-10T05:14:19.152Z,96088.48
2018-09-10T05:16:47.625Z,96094.02
2018-09-10T05:19:16.013Z,96086.84
2018-09-10T05:21:44.449Z,96083.70
2018-09-10T05:24:12.813Z,96084.94
2018-09-10T05:26:41.208Z,96089.03
2018-09-10T05:29:09.608Z,96102.84
2018-09-10T05:31:38.014Z,96109.59
2018-09-10T05:34:07.745Z,96109.44
2018-09-10T05:36:36.266Z,96114.10
2018-09-10T05:39:06.938Z,96119.34
2018-09-10T05:41:35.499Z,96114.94
2018-09-10T05:44:03.884Z,96119.51
2018-09-10T05:46:32.301Z,96122.97
2018-09-10T05:49:01.975Z,96127.78
2018-09-10T05:51:30.393Z,96129.18
2018-09-10T05:53:58.870Z,96128.55
2018-09-10T05:56:27.293Z,96134.23
2018-09-10T05:58:57.334Z,96134.19
2018-09-10T06:01:25.798Z,96132.64
2018-09-10T06:03:54.209Z,96132.13
2018-09-10T06:06:22.659Z,96124.17
2018-09-10T06:08:51.983Z,96134.75
2018-09-10T06:11:20.356Z,96133.23
2018-09-10T06:13:48.761Z,96139.96
2018-09-10T06:16:17.202Z,96132.95
2018-09-10T06:18:45.593Z,96133.47
2018-09-10T06:21:14.017Z,96141.14
2018-09-10T06:23:42.453Z,96137.96
2018-09-10T06:26:10.972Z,96132.66
2018-09-10T06:28:39.874Z,96136.16
2018-09-10T06:31:09.826Z,96133.52
2018-09-10T06:33:38.303Z,96132.53
2018-09-10T06:36:06.680Z,96134.84
2018-09-10T06:38:35.119Z,96138.41
2018-09-10T06:41:03.538Z,96136.48
2018-09-10T06:43:31.977Z,96140.10
2018-09-10T06:46:00.349Z,96133.14
2018-09-10T06:48:28.881Z,96136.27
2018-09-10T06:50:57.303Z,96131.68
2018-09-10T06:53:25.720Z,96140.10
2018-09-10T06:55:54.101Z,96133.60
2018-09-10T06:58:22.538Z,96131.55
2018-09-10T07:00:50.934Z,96133.55
2018-09-10T07:03:19.672Z,96137.20
2018-09-10T07:05:48.149Z,96134.63
2018-09-10T07:08:16.862Z,96136.81
2018-09-10T07:10:45.257Z,96134.19
2018-09-10T07:13:13.730Z,96132.31
2018-09-10T07:15:42.224Z,96135.13
2018-09-10T07:18:10.701Z,96136.98
2018-09-10T07:20:39.197Z,96135.19
2018-09-10T07:23:07.588Z,96140.64
2018-09-10T07:25:36.012Z,96134.05
2018-09-10T07:28:04.408Z,96141.64
2018-09-10T07:30:32.850Z,96144.25
2018-09-10T07:33:01.986Z,96141.95
2018-09-10T07:35:30.417Z,96140.81
2018-09-10T07:37:58.935Z,96137.56
2018-09-10T07:40:27.373Z,96134.42
2018-09-10T07:42:55.781Z,96143.84
2018-09-10T07:45:24.229Z,96137.24
2018-09-10T07:47:52.982Z,96144.81
2018-09-10T07:50:21.452Z,96143.16
2018-09-10T07:52:49.794Z,96147.11
2018-09-10T07:55:18.214Z,96153.17
2018-09-10T07:57:46.704Z,96163.74
2018-09-10T08:00:15.145Z,96168.47
2018-09-10T08:02:43.517Z,96166.38
2018-09-10T08:05:11.974Z,96163.03
2018-09-10T08:07:41.301Z,96171.27
2018-09-10T08:10:09.797Z,96169.39
2018-09-10T08:12:38.325Z,96180.05
2018-09-10T08:15:06.739Z,96182.39
2018-09-10T08:17:35.200Z,96186.31
2018-09-10T08:20:04.501Z,96186.62
2018-09-10T08:22:33.108Z,96188.63
2018-09-10T08:25:01.932Z,96184.58
2018-09-10T08:27:30.348Z,96188.06
2018-09-10T08:29:58.747Z,96189.77
2018-09-10T08:32:27.239Z,96188.65
2018-09-10T08:34:55.641Z,96186.83
2018-09-10T08:37:24.094Z,96182.02
2018-09-10T08:39:52.513Z,96184.55
2018-09-10T08:42:20.925Z,96184.84
2018-09-10T08:44:49.306Z,96182.96
2018-09-10T08:47:17.781Z,96183.05
2018-09-10T08:49:46.595Z,96174.77
2018-09-10T08:52:15.101Z,96174.87
2018-09-10T08:54:43.779Z,96174.88
2018-09-10T08:57:11.995Z,96173.52
2018-09-10T08:59:40.514Z,96168.64
2018-09-10T09:02:15.285Z,96164.70
2018-09-10T09:04:43.735Z,96164.03
2018-09-10T09:07:12.170Z,96164.47
2018-09-10T09:09:41.177Z,96163.06
2018-09-10T09:12:09.552Z,96165.33
2018-09-10T09:14:37.976Z,96163.86
2018-09-10T09:17:06.398Z,96164.95
2018-09-10T09:19:34.906Z,96170.44
2018-09-10T09:22:03.571Z,96162.14
2018-09-10T09:24:32.086Z,96171.95
2018-09-10T09:27:00.473Z,96173.92
2018-09-10T09:29:28.976Z,96174.11
2018-09-10T09:31:57.366Z,96174.52
2018-09-10T09:34:29.945Z,96170.45
2018-09-10T09:37:03.590Z,96169.96
2018-09-10T09:39:37.114Z,96165.67
2018-09-10T09:42:10.850Z,96164.09
2018-09-10T09:44:44.611Z,96164.32
2018-09-10T09:47:12.989Z,96161.23
2018-09-10T09:49:41.355Z,96160.23
2018-09-10T09:52:09.766Z,96152.95
2018-09-10T09:54:38.856Z,96150.33
2018-09-10T09:57:07.373Z,96145.25
2018-09-10T09:59:35.849Z,96142.33
2018-09-10T10:02:24.558Z,96138.70
2018-09-10T10:04:52.972Z,96130.98
2018-09-10T10:07:21.396Z,96131.84
2018-09-10T10:09:49.781Z,96132.94
2018-09-10T10:12:18.302Z,96139.25
2018-09-10T10:14:46.700Z,96140.70
2018-09-10T10:17:15.571Z,96141.41
2018-09-10T10:19:44.058Z,96139.44
2018-09-10T10:22:12.614Z,96138.45
2018-09-10T10:24:41.105Z,96149.60
2018-09-10T10:27:09.535Z,96148.81
2018-09-10T10:29:37.921Z,96150.94
2018-09-10T10:32:06.689Z,96153.56
2018-09-10T10:34:35.394Z,96147.34
2018-09-10T10:37:03.817Z,96156.58
2018-09-10T10:39:32.196Z,96151.20
2018-09-10T10:42:00.674Z,96149.60
2018-09-10T10:44:29.054Z,96147.78
2018-09-10T10:46:57.513Z,96148.67
2018-09-10T10:49:25.885Z,96150.00
2018-09-10T10:51:54.289Z,96140.58
2018-09-10T10:54:22.741Z,96151.27
2018-09-10T10:56:51.149Z,96148.70
2018-09-10T10:59:19.577Z,96150.56
2018-09-10T11:01:47.981Z,96147.98
2018-09-10T11:04:17.427Z,96153.66
2018-09-10T11:06:45.813Z,96150.90
2018-09-10T11:09:14.237Z,96153.42
2018-09-10T11:11:42.600Z,96146.08
2018-09-10T11:14:11.019Z,96146.14
2018-09-10T11:16:39.421Z,96140.91
2018-09-10T11:19:07.933Z,96141.27
2018-09-10T11:21:36.304Z,96138.13
2018-09-10T11:24:04.756Z,96140.38
2018-09-10T11:26:33.166Z,96137.72
2018-09-10T11:29:01.813Z,96139.75
2018-09-10T11:31:30.197Z,96137.92
2018-09-10T11:33:58.600Z,96140.47
2018-09-10T11:36:27.006Z,96142.09
2018-09-10T11:38:55.506Z,96141.97
2018-09-10T11:41:23.913Z,96143.13
2018-09-10T11:43:52.294Z,96135.38
2018-09-10T11:46:20.749Z,96132.55
2018-09-10T11:48:49.411Z,96133.30
2018-09-10T11:51:17.857Z,96129.11
2018-09-10T11:53:46.237Z,96134.34
2018-09-10T11:56:14.649Z,96137.19
2018-09-10T11:58:43.029Z,96134.70
2018-09-10T12:01:11.454Z,96132.30
2018-09-10T12:03:39.864Z,96137.07
2018-09-10T12:06:08.280Z,96126.89
2018-09-10T12:08:36.657Z,96134.28
2018-09-10T12:11:05.132Z,96135.20
2018-09-10T12:13:33.568Z,96127.09
2018-09-10T12:16:02.041Z,96136.16
2018-09-10T12:18:30.448Z,96134.88
2018-09-10T12:20:58.862Z,96145.13
2018-09-10T12:23:27.243Z,96145.05
2018-09-10T12:25:56.548Z,96143.59
2018-09-10T12:28:24.921Z,96146.22
2018-09-10T12:30:53.348Z,96147.87
2018-09-10T12:33:21.776Z,96143.79
2018-09-10T12:35:50.161Z,96138.30
2018-09-10T12:38:18.581Z,96132.95
2018-09-10T12:40:46.979Z,96137.73
2018-09-10T12:43:15.405Z,96129.84
2018-09-10T12:45:43.780Z,96137.34
2018-09-10T12:48:12.195Z,96135.23
2018-09-10T12:50:41.413Z,96117.08
2018-09-10T12:53:09.843Z,96126.72
2018-09-10T12:55:38.293Z,96121.12
2018-09-10T12:58:06.725Z,96112.80
2018-09-10T13:00:35.153Z,96117.51
2018-09-10T13:03:03.652Z,96116.74
2018-09-10T13:05:32.125Z,96118.95
2018-09-10T13:08:00.598Z,96115.56
2018-09-10T13:10:29.039Z,96118.28
2018-09-10T13:12:57.425Z,96120.05
2018-09-10T13:15:25.813Z,96116.70
2018-09-10T13:17:54.213Z,96108.52
2018-09-10T13:20:22.605Z,96110.05
2018-09-10T13:22:51.254Z,96110.41
2018-09-10T13:25:19.665Z,96106.55
2018-09-10T13:27:48.065Z,96113.02
2018-09-10T13:30:16.536Z,96110.64
2018-09-10T13:32:44.901Z,96104.28
2018-09-10T13:35:13.334Z,96092.63
2018-09-10T13:37:41.711Z,96099.39
2018-09-10T13:40:10.410Z,96101.35
2018-09-10T13:42:38.772Z,96096.64
2018-09-10T13:45:07.212Z,96090.80
2018-09-10T13:47:35.589Z,96096.24
2018-09-10T13:50:04.053Z,96095.05
2018-09-10T13:52:32.445Z,96089.09
2018-09-10T13:55:00.881Z,96084.17
2018-09-10T13:57:29.270Z,96090.22
2018-09-10T13:59:57.697Z,96086.95
2018-09-10T14:02:26.085Z,96085.88
2018-09-10T14:04:54.581Z,96085.04
2018-09-10T14:07:22.981Z,96081.34
2018-09-10T14:09:51.417Z,96078.23
2018-09-10T14:12:19.844Z,96086.55
2018-09-10T14:14:48.270Z,96088.21
2018-09-10T14:17:16.700Z,96080.25
2018-09-10T14:19:45.150Z,96075.43
2018-09-10T14:22:13.600Z,96074.51
2018-09-10T14:24:41.985Z,96072.59
2018-09-10T14:27:10.403Z,96067.37
2018-09-10T14:29:38.804Z,96063.48
2018-09-10T14:32:07.253Z,96054.77
2018-09-10T14:34:35.671Z,96051.12
2018-09-10T14:37:04.147Z,96053.91
2018-09-10T14:39:32.545Z,96052.30
2018-09-10T14:42:00.986Z,96053.84
2018-09-10T14:44:29.381Z,96057.56
2018-09-10T14:46:57.805Z,96062.80
2018-09-10T14:49:26.213Z,96063.43
2018-09-10T14:51:54.653Z,96064.42
2018-09-10T14:54:23.033Z,96064.38
2018-09-10T14:56:51.465Z,96059.77
2018-09-10T14:59:19.855Z,96060.28
2018-09-10T15:01:48.281Z,96069.78
2018-09-10T15:04:16.742Z,96063.86
2018-09-10T15:06:45.145Z,96073.67
2018-09-10T15:09:13.540Z,96077.33
2018-09-10T15:11:41.962Z,96076.19
2018-09-10T15:14:10.374Z,96076.02
2018-09-10T15:16:38.773Z,96076.54
2018-09-10T15:19:07.313Z,96077.25
2018-09-10T15:21:35.620Z,96084.00
2018-09-10T15:24:04.053Z,96080.92
2018-09-10T15:26:32.445Z,96077.59
2018-09-10T15:29:00.854Z,96079.18
2018-09-10T15:31:29.256Z,96072.00
2018-09-10T15:33:57.694Z,96074.92
2018-09-10T15:36:26.078Z,96075.34
2018-09-10T15:38:54.481Z,96074.04
2018-09-10T15:41:22.857Z,96065.95
2018-09-10T15:43:51.273Z,96063.78
2018-09-10T15:46:19.645Z,96063.19
2018-09-10T15:48:48.097Z,96063.20
2018-09-10T15:51:16.550Z,96062.43
2018-09-10T15:53:44.949Z,96060.73
2018-09-10T15:56:13.332Z,96061.98
2018-09-10T15:58:48.521Z,96062.61
2018-09-10T16:01:16.902Z,96059.16
2018-09-10T16:03:45.416Z,96055.69
2018-09-10T16:06:13.776Z,96065.86
2018-09-10T16:08:42.182Z,96068.92
2018-09-10T16:11:10.629Z,96070.77
2018-09-10T16:13:40.280Z,96069.72
2018-09-10T16:16:08.698Z,96072.02
2018-09-10T16:18:37.118Z,96073.23
2018-09-10T16:21:05.652Z,96074.16
2018-09-10T16:23:34.044Z,96076.34
2018-09-10T16:26:03.045Z,96074.05
2018-09-10T16:28:31.510Z,96072.71
2018-09-10T16:30:59.944Z,96078.98
2018-09-10T16:33:28.331Z,96077.86
2018-09-10T16:35:56.764Z,96077.33
2018-09-10T16:38:25.173Z,96090.30
2018-09-10T16:40:53.695Z,96085.81
2018-09-10T16:43:22.042Z,96092.39
2018-09-10T16:45:50.456Z,96090.56
2018-09-10T16:48:18.852Z,96090.61
2018-09-10T16:50:47.313Z,96093.73
2018-09-10T16:53:15.706Z,96088.02
2018-09-10T16:55:44.173Z,96092.75
2018-09-10T16:58:12.533Z,96085.66
2018-09-10T17:00:41.473Z,96092.77
2018-09-10T17:03:09.808Z,96096.56
2018-09-10T17:05:38.258Z,96091.63
2018-09-10T17:08:06.693Z,96100.00
2018-09-10T17:10:38.077Z,96106.19
2018-09-10T17:13:06.546Z,96105.31
2018-09-10T17:15:34.960Z,96105.77
2018-09-10T17:18:03.776Z,96115.63
2018-09-10T17:20:32.264Z,96111.36
2018-09-10T17:23:00.795Z,96109.52
2018-09-10T17:25:29.228Z,96107.87
2018-09-10T17:27:57.697Z,96108.53
2018-09-10T17:30:26.166Z,96107.81
2018-09-10T17:32:54.601Z,96113.33
2018-09-10T17:35:23.034Z,96111.41
2018-09-10T17:37:51.454Z,96112.23
2018-09-10T17:40:19.976Z,96119.59
2018-09-10T17:42:48.415Z,96120.23
2018-09-10T17:45:16.869Z,96115.81
2018-09-10T17:47:45.600Z,96123.82
2018-09-10T17:50:13.975Z,96124.95
2018-09-10T17:52:42.487Z,96127.73
2018-09-10T17:55:10.867Z,96126.34
2018-09-10T17:57:39.301Z,96126.87
2018-09-10T18:00:08.127Z,96130.58
2018-09-10T18:02:37.102Z,96133.36
2018-09-10T18:05:05.596Z,96131.32
2018-09-10T18:07:34.081Z,96143.52
2018-09-10T18:10:02.587Z,96147.38
2018-09-10T18:12:30.969Z,96145.67
2018-09-10T18:14:59.447Z,96151.03
2018-09-10T18:17:27.851Z,96150.06
2018-09-10T18:19:56.293Z,96150.75
2018-09-10T18:22:24.716Z,96156.25
2018-09-10T18:24:53.337Z,96159.59
2018-09-10T18:27:21.680Z,96160.28
2018-09-10T18:29:50.213Z,96168.59
2018-09-10T18:32:18.661Z,96167.17
2018-09-10T18:34:47.072Z,96168.86
2018-09-10T18:37:15.532Z,96172.75
2018-09-10T18:39:44.066Z,96170.14
2018-09-10T18:42:12.509Z,96166.02
2018-09-10T18:44:40.962Z,96170.19
2018-09-10T18:47:09.574Z,96166.75
2018-09-10T18:49:38.030Z,96177.40
2018-09-10T18:52:06.467Z,96171.31
2018-09-10T18:54:34.979Z,96177.60
2018-09-10T18:57:03.745Z,96175.53
2018-09-10T18:59:32.385Z,96176.26
2018-09-10T19:02:00.802Z,96178.12
2018-09-10T19:04:30.465Z,96175.67
2018-09-10T19:06:58.866Z,96174.57
2018-09-10T19:09:27.638Z,96166.66
2018-09-10T19:11:56.098Z,96170.30
2018-09-10T19:14:24.541Z,96170.65
2018-09-10T19:16:52.962Z,96176.47
2018-09-10T19:19:21.352Z,96170.57
2018-09-10T19:21:50.043Z,96172.92
2018-09-10T19:24:18.491Z,96173.17
2018-09-10T19:26:46.940Z,96166.59
2018-09-10T19:29:15.349Z,96168.77
2018-09-10T19:31:43.806Z,96163.55
2018-09-10T19:34:12.282Z,96165.27
2018-09-10T19:36:40.758Z,96168.27
2018-09-10T19:39:10.518Z,96169.25
2018-09-10T19:41:39.092Z,96167.77
2018-09-10T19:44:07.551Z,96167.80
2018-09-10T19:46:35.929Z,96166.99
2018-09-10T19:49:04.447Z,96171.19
2018-09-10T19:51:32.979Z,96173.69
2018-09-10T19:54:01.525Z,96173.70
2018-09-10T19:56:29.929Z,96181.48
2018-09-10T19:58:58.401Z,96178.83
2018-09-10T20:01:26.861Z,96178.69
2018-09-10T20:03:55.309Z,96177.05
2018-09-10T20:06:23.745Z,96179.20
2018-09-10T20:08:52.181Z,96180.23
2018-09-10T20:11:20.574Z,96180.75
2018-09-10T20:13:49.001Z,96178.95
2018-09-10T20:16:17.400Z,96179.75
2018-09-10T20:18:46.033Z,96180.25
2018-09-10T20:21:14.777Z,96184.56
2018-09-10T20:23:43.208Z,96193.16
2018-09-10T20:26:11.621Z,96195.95
2018-09-10T20:28:40.614Z,96189.19
2018-09-10T20:31:09.145Z,96188.53
2018-09-10T20:33:42.857Z,96193.67
2018-09-10T20:36:11.293Z,96193.67
2018-09-10T20:38:39.778Z,96192.98
2018-09-10T20:41:08.175Z,96199.59
2018-09-10T20:43:36.616Z,96206.37
2018-09-10T20:46:05.077Z,96213.94
2018-09-10T20:48:33.606Z,96212.14
2018-09-10T20:51:02.026Z,96213.11
2018-09-10T20:53:30.418Z,96212.14
2018-09-10T20:55:58.866Z,96213.45
2018-09-10T20:58:27.257Z,96217.73
2018-09-10T21:00:55.701Z,96220.37
2018-09-10T21:03:24.145Z,96218.70
2018-09-10T21:05:52.637Z,96212.94
2018-09-10T21:08:21.021Z,96213.87
2018-09-10T21:10:49.473Z,96221.48
2018-09-10T21:13:17.865Z,96218.14
2018-09-10T21:15:46.277Z,96215.99
2018-09-10T21:18:14.676Z,96221.09
2018-09-10T21:20:43.104Z,96219.14
2018-09-10T21:23:11.499Z,96215.67
2018-09-10T21:25:39.998Z,96218.13
2018-09-10T21:28:08.376Z,96223.05
2018-09-10T21:30:37.118Z,96217.95
2018-09-10T21:33:05.512Z,96222.70
2018-09-10T21:35:33.906Z,96226.82
2018-09-10T21:38:02.338Z,96219.86
2018-09-10T21:40:30.802Z,96217.71
2018-09-10T21:42:59.232Z,96221.96
2018-09-10T21:45:27.626Z,96220.63
2018-09-10T21:47:56.097Z,96218.00
2018-09-10T21:50:24.532Z,96214.69
2018-09-10T21:52:52.976Z,96216.12
2018-09-10T21:55:21.383Z,96220.73
2018-09-10T21:57:50.109Z,96217.61
2018-09-10T22:00:18.573Z,96224.20
2018-09-10T22:02:47.215Z,96232.09
2018-09-10T22:05:15.677Z,96234.24
2018-09-10T22:07:44.134Z,96238.50
2018-09-10T22:10:12.732Z,96233.41
2018-09-10T22:12:41.100Z,96233.39
2018-09-10T22:15:09.485Z,96222.88
2018-09-10T22:17:37.917Z,96223.95
2018-09-10T22:20:06.425Z,96224.80
2018-09-10T22:22:34.857Z,96223.30
2018-09-10T22:25:03.689Z,96221.31
2018-09-10T22:27:32.139Z,96213.39
2018-09-10T22:30:00.541Z,96214.83
2018-09-10T22:32:29.053Z,96216.16
2018-09-10T22:34:57.437Z,96208.88
2018-09-10T22:37:25.846Z,96212.14
2018-09-10T22:39:54.291Z,96208.48
2018-09-10T22:42:22.735Z,96202.64
2018-09-10T22:44:51.146Z,96210.88
2018-09-10T22:47:19.570Z,96207.34
2018-09-10T22:49:48.013Z,96211.41
2018-09-10T22:52:16.409Z,96210.17
2018-09-10T22:54:44.943Z,96208.58
2018-09-10T22:57:13.482Z,96208.48
2018-09-10T22:59:42.015Z,96209.28
2018-09-10T23:02:10.575Z,96203.05
2018-09-10T23:04:39.385Z,96207.97
2018-09-10T23:07:07.833Z,96209.92
2018-09-10T23:09:36.269Z,96205.92
2018-09-10T23:12:04.749Z,96204.39
2018-09-10T23:14:33.175Z,96202.50
2018-09-10T23:17:01.997Z,96201.34
2018-09-10T23:19:30.428Z,96217.77
2018-09-10T23:21:58.823Z,96211.52
2018-09-10T23:24:27.282Z,96211.87
2018-09-10T23:26:55.672Z,96206.25
2018-09-10T23:29:24.137Z,96207.09
2018-09-10T23:31:52.564Z,96209.42
2018-09-10T23:34:20.954Z,96219.92
2018-09-10T23:36:49.382Z,96215.11
2018-09-10T23:39:17.770Z,96215.69
2018-09-10T23:41:46.247Z,96218.83
2018-09-10T23:44:14.629Z,96215.85
2018-09-10T23:46:43.074Z,96224.70
2018-09-10T23:49:11.506Z,96214.05
2018-09-10T23:51:39.974Z,96208.92
2018-09-10T23:54:08.389Z,96211.07
2018-09-10T23:56:36.876Z,96214.18
2018-09-10T23:59:06.337Z,96214.50
